Time;durP1;ratioP1;P1;durP2;ratioP2;P2;SDS_P1;SDS_P2;PMS_P1;PMS_P2;Temp;Humidity;BMP_temperature;BMP_pressure;BME280_temperature;BME280_humidity;BME280_pressure;Samples;Min_cycle;Max_cycle;Signal;HPM_P1;HPM_P2
2022/03/22 00:00:56;;;;;;;28.17;16.42;;;6.10;99.90;;;;;;5034609;28;19928;-79
2022/03/22 00:03:25;;;;;;;29.50;16.67;;;6.00;99.90;;;;;;5052654;28;20041;-79
2022/03/22 00:05:54;;;;;;;25.02;15.32;;;6.00;99.90;;;;;;5050585;28;20041;-79
2022/03/22 00:08:20;;;;;;;26.35;15.55;;;6.00;99.90;;;;;;5034401;28;20072;-79
2022/03/22 00:10:46;;;;;;;;;;;6.00;99.90;;;;;;5035427;28;20424;-79
2022/03/22 00:13:12;;;;;;;28.20;15.75;;;6.00;99.90;;;;;;5042556;28;19925;-79
2022/03/22 00:15:37;;;;;;;28.90;16.85;;;6.00;99.90;;;;;;5014449;28;20099;-79
2022/03/22 00:18:03;;;;;;;;;;;6.00;99.90;;;;;;5034394;28;20547;-79
2022/03/22 00:20:29;;;;;;;34.65;16.85;;;6.00;99.90;;;;;;5032584;28;19929;-79
2022/03/22 00:22:55;;;;;;;28.67;16.75;;;6.00;99.90;;;;;;5032318;28;20047;-79
2022/03/22 00:25:21;;;;;;;;;;;6.00;99.90;;;;;;5032592;28;20124;-79
2022/03/22 00:27:51;;;;;;;29.83;17.35;;;6.00;99.90;;;;;;5033606;28;19927;-79
2022/03/22 00:30:19;;;;;;;29.85;17.88;;;6.00;99.90;;;;;;5032066;28;20045;-79
2022/03/22 00:32:45;;;;;;;32.55;16.88;;;6.00;99.90;;;;;;5014796;28;20077;-79
2022/03/22 00:35:11;;;;;;;28.00;16.30;;;6.00;99.90;;;;;;5032379;28;20045;-80
2022/03/22 00:37:43;;;;;;;;;;;6.00;99.90;;;;;;5032415;28;20037;-80
2022/03/22 00:40:18;;;;;;;30.48;17.67;;;6.00;99.90;;;;;;5031934;28;19928;-80
2022/03/22 00:42:46;;;;;;;28.73;17.00;;;6.00;99.90;;;;;;5037271;28;20120;-80
2022/03/22 00:45:18;;;;;;;29.58;17.88;;;6.00;99.90;;;;;;5034032;28;20087;-80
2022/03/22 00:47:52;;;;;;;29.90;17.30;;;6.00;99.90;;;;;;5052182;28;20447;-80
2022/03/22 00:50:24;;;;;;;30.70;18.75;;;6.00;99.90;;;;;;5051217;28;20555;-81
2022/03/22 00:52:50;;;;;;;31.77;18.02;;;6.00;99.90;;;;;;5050844;28;20119;-80
2022/03/22 00:55:16;;;;;;;;;;;6.00;99.90;;;;;;5052012;28;20132;-80
2022/03/22 00:57:43;;;;;;;26.40;16.77;;;5.90;99.90;;;;;;5037265;28;19928;-80
2022/03/22 01:00:12;;;;;;;31.25;17.95;;;5.90;99.90;;;;;;5038143;28;20076;-80
2022/03/22 01:02:41;;;;;;;32.90;18.38;;;5.90;99.90;;;;;;5052373;28;20033;-80
2022/03/22 01:05:13;;;;;;;30.10;18.00;;;6.90;99.90;;;;;;5035616;28;20172;-80
2022/03/22 01:07:43;;;;;;;31.02;17.83;;;5.90;99.90;;;;;;5036199;28;20041;-80
2022/03/22 01:10:10;;;;;;;30.67;17.67;;;5.90;99.90;;;;;;5035638;28;20045;-79
2022/03/22 01:12:37;;;;;;;28.13;17.20;;;5.90;99.90;;;;;;5035627;28;20112;-79
2022/03/22 01:15:18;;;;;;;33.17;18.90;;;5.90;99.90;;;;;;5019433;28;20061;-80
2022/03/22 01:17:47;;;;;;;30.98;18.67;;;5.90;99.90;;;;;;5035827;28;20514;-80
2022/03/22 01:20:13;;;;;;;28.17;17.08;;;5.90;99.90;;;;;;5035340;28;20044;-80
2022/03/22 01:22:39;;;;;;;;;;;5.90;99.90;;;;;;5018620;28;20037;-80
2022/03/22 01:25:18;;;;;;;27.97;17.70;;;5.90;99.90;;;;;;5017348;28;20438;-80
2022/03/22 01:27:48;;;;;;;29.27;18.48;;;5.90;99.90;;;;;;5017860;28;20049;-80
2022/03/22 01:30:16;;;;;;;30.70;18.15;;;5.80;99.90;;;;;;5036611;28;20049;-80
2022/03/22 01:32:42;;;;;;;31.35;17.88;;;5.80;99.90;;;;;;5035154;28;20129;-80
2022/03/22 01:35:09;;;;;;;31.73;18.25;;;5.80;99.90;;;;;;5035391;28;20041;-80
2022/03/22 01:37:36;;;;;;;29.30;18.52;;;5.80;99.90;;;;;;5035614;28;20045;-80
2022/03/22 01:40:03;;;;;;;29.67;18.33;;;5.80;99.90;;;;;;5017261;28;20396;-80
2022/03/22 01:42:29;;;;;;;30.85;19.38;;;5.80;99.90;;;;;;5035554;28;20038;-80
2022/03/22 01:44:54;;;;;;;;;;;5.80;99.90;;;;;;5025701;28;20055;-80
2022/03/22 01:47:23;;;;;;;30.40;17.75;;;5.80;99.90;;;;;;5036370;28;19921;-80
2022/03/22 01:49:50;;;;;;;31.45;18.70;;;5.80;99.90;;;;;;5055073;28;20404;-80
2022/03/22 01:52:19;;;;;;;34.72;18.75;;;5.70;99.90;;;;;;5036837;28;20389;-80
2022/03/22 01:54:50;;;;;;;29.20;19.05;;;5.70;99.90;;;;;;5054717;28;20044;-80
2022/03/22 01:57:20;;;;;;;33.75;19.88;;;5.70;99.90;;;;;;5036881;28;20048;-80
2022/03/22 01:59:46;;;;;;;31.88;18.58;;;5.70;99.90;;;;;;5035800;28;20056;-80
2022/03/22 02:07:42;;;;;;;34.97;19.85;;;5.70;99.90;;;;;;5035756;28;20060;-79
2022/03/22 02:10:08;;;;;;;32.50;20.02;;;5.70;99.90;;;;;;5052953;28;20036;-80
2022/03/22 02:12:34;;;;;;;;;;;5.80;99.90;;;;;;5037654;28;20060;-80
2022/03/22 02:15:03;;;;;;;31.58;18.92;;;5.70;99.90;;;;;;5036306;28;19925;-80
2022/03/22 02:17:29;;;;;;;32.83;19.83;;;5.80;99.90;;;;;;5054985;28;20041;-79
2022/03/22 02:19:55;;;;;;;;;;;5.80;99.90;;;;;;5035862;28;20044;-80
2022/03/22 02:22:33;;;;;;;31.23;18.95;;;5.70;99.90;;;;;;5035972;28;19960;-80
2022/03/22 02:24:58;;;;;;;32.42;19.17;;;5.70;99.90;;;;;;5054645;28;20043;-80
2022/03/22 02:27:27;;;;;;;;;;;5.70;99.90;;;;;;5054449;28;20124;-80
2022/03/22 02:29:52;;;;;;;34.22;19.83;;;5.70;99.90;;;;;;5054141;28;19920;-80
2022/03/22 02:32:22;;;;;;;;;;;5.70;99.90;;;;;;5037029;28;20055;-80
2022/03/22 02:34:48;;;;;;;34.90;19.38;;;5.70;99.90;;;;;;5052351;28;20280;-80
2022/03/22 02:37:13;;;;;;;;;;;5.70;99.90;;;;;;5053967;28;20040;-80
2022/03/22 02:39:39;;;;;;;36.83;19.08;;;5.70;99.90;;;;;;5054454;28;20372;-80
2022/03/22 02:42:05;;;;;;;;;;;5.70;99.90;;;;;;5054639;28;20036;-80
2022/03/22 02:44:30;;;;;;;30.20;19.67;;;5.60;99.90;;;;;;5036182;28;20421;-80
2022/03/22 02:46:56;;;;;;;;;;;5.60;99.90;;;;;;5053604;28;20045;-80
2022/03/22 02:49:22;;;;;;;34.83;19.60;;;5.60;99.90;;;;;;5053527;28;19968;-80
2022/03/22 02:51:47;;;;;;;;;;;5.60;99.90;;;;;;5046492;28;20457;-80
2022/03/22 02:54:13;;;;;;;34.35;19.45;;;5.60;99.90;;;;;;5033644;28;19972;-80
2022/03/22 02:56:38;;;;;;;;;;;5.60;99.90;;;;;;5015912;28;20409;-80
2022/03/22 02:59:04;;;;;;;34.13;19.38;;;5.60;99.90;;;;;;5015944;28;20269;-80
2022/03/22 03:01:32;;;;;;;32.67;19.90;;;5.60;99.90;;;;;;5016474;28;20048;-80
2022/03/22 03:03:59;;;;;;;29.13;18.85;;;5.60;99.90;;;;;;5015884;28;20049;-80
2022/03/22 03:06:28;;;;;;;33.35;21.20;;;5.60;99.90;;;;;;5016506;28;20045;-80
2022/03/22 03:08:55;;;;;;;35.83;20.35;;;5.60;99.90;;;;;;5016545;28;20112;-80
2022/03/22 03:11:20;;;;;;;35.75;20.27;;;5.50;99.90;;;;;;5033036;28;20049;-80
2022/03/22 03:16:30;;;;;;;32.13;19.50;;;5.60;99.90;;;;;;5016574;28;19928;-80
2022/03/22 03:18:56;;;;;;;;;;;5.60;99.90;;;;;;5033577;28;20049;-80
2022/03/22 03:21:21;;;;;;;33.03;20.10;;;5.60;99.90;;;;;;5014823;28;19927;-80
2022/03/22 03:23:47;;;;;;;;;;;5.60;99.90;;;;;;5016192;28;20132;-80
2022/03/22 03:26:12;;;;;;;34.75;20.23;;;5.60;99.90;;;;;;5024767;28;19928;-80
2022/03/22 03:28:38;;;;;;;;;;;5.60;99.90;;;;;;5053339;28;20067;-80
2022/03/22 03:31:04;;;;;;;33.45;19.58;;;5.60;99.90;;;;;;5053558;28;19931;-79
2022/03/22 03:33:30;;;;;;;29.17;19.10;;;5.60;99.90;;;;;;5052840;28;20049;-80
2022/03/22 03:35:58;;;;;;;;;;;5.70;99.90;;;;;;5053595;28;20096;-80
2022/03/22 03:38:24;;;;;;;34.25;20.30;;;5.60;99.90;;;;;;5053329;28;19965;-80
2022/03/22 03:43:33;;;;;;;34.38;21.35;;;5.60;99.90;;;;;;5035713;28;20415;-80
2022/03/22 03:48:43;;;;;;;34.25;20.17;;;5.50;99.90;;;;;;5015376;28;19925;-80
2022/03/22 03:51:08;;;;;;;;;;;5.50;99.90;;;;;;5018158;28;20041;-80
2022/03/22 03:53:34;;;;;;;35.28;20.25;;;5.50;99.90;;;;;;5039813;28;19921;-80
2022/03/22 03:55:59;;;;;;;;;;;5.40;99.90;;;;;;5039069;28;20049;-80
2022/03/22 03:58:25;;;;;;;35.83;20.48;;;5.40;99.90;;;;;;5023401;28;20004;-80
2022/03/22 04:00:51;;;;;;;33.00;20.08;;;5.30;99.90;;;;;;5026673;28;20048;-79
2022/03/22 04:03:16;;;;;;;35.45;20.52;;;5.30;99.90;;;;;;5031977;28;20041;-80
2022/03/22 04:05:42;;;;;;;;;;;5.30;99.90;;;;;;5051160;28;20044;-80
2022/03/22 04:08:07;;;;;;;34.17;21.35;;;5.30;99.90;;;;;;5031668;28;20387;-79
2022/03/22 04:10:34;;;;;;;;;;;5.30;99.90;;;;;;5026229;28;20052;-79
2022/03/22 04:13:03;;;;;;;32.90;19.33;;;5.30;99.90;;;;;;5014935;28;20011;-80
2022/03/22 04:15:29;;;;;;;33.80;20.48;;;5.30;99.90;;;;;;5014132;28;20555;-80
2022/03/22 04:17:59;;;;;;;36.00;22.58;;;5.20;99.90;;;;;;5026532;28;20041;-79
2022/03/22 04:20:27;;;;;;;38.03;22.30;;;5.30;99.90;;;;;;5014681;28;20048;-76
2022/03/22 04:22:53;;;;;;;41.20;21.38;;;5.30;99.90;;;;;;5032135;28;20099;-80
2022/03/22 04:25:19;;;;;;;;;;;5.30;99.90;;;;;;5017129;28;20048;-79
2022/03/22 04:33:25;;;;;;;37.28;22.95;;;5.20;99.90;;;;;;4997676;28;20054;-83
2022/03/22 04:35:51;;;;;;;36.05;22.13;;;5.20;99.90;;;;;;5034022;28;20071;-84
2022/03/22 04:38:16;;;;;;;;;;;5.20;99.90;;;;;;5033403;28;20091;-85
2022/03/22 04:40:42;;;;;;;33.58;20.48;;;5.10;99.90;;;;;;5032159;28;20436;-84
2022/03/22 04:43:07;;;;;;;;;;;5.10;99.90;;;;;;5047734;28;20052;-85
2022/03/22 04:45:34;;;;;;;37.25;21.88;;;5.00;99.90;;;;;;5031311;28;19928;-85
2022/03/22 04:47:59;;;;;;;32.90;19.95;;;5.00;99.90;;;;;;5050390;28;20523;-85
2022/03/22 04:50:25;;;;;;;;;;;5.00;99.90;;;;;;5031967;28;20069;-84
2022/03/22 04:58:19;;;;;;;35.50;21.58;;;4.90;99.90;;;;;;5048956;28;20049;-84
2022/03/22 05:00:46;;;;;;;;;;;4.90;99.90;;;;;;5034777;28;20056;-83
2022/03/22 05:03:11;;;;;;;35.40;22.00;;;4.90;99.90;;;;;;5049727;28;19921;-83
2022/03/22 05:08:29;;;;;;;30.17;19.08;;;4.90;99.90;;;;;;5003729;28;19967;-85
2022/03/22 05:10:55;;;;;;;;;;;4.80;99.90;;;;;;5052281;28;20041;-85
2022/03/22 05:13:21;;;;;;;38.35;19.63;;;4.80;99.90;;;;;;5032283;28;19925;-85
2022/03/22 05:15:47;;;;;;;35.05;20.30;;;4.70;99.90;;;;;;5030729;28;20068;-85
2022/03/22 05:18:20;;;;;;;;;;;4.70;99.90;;;;;;5031409;28;20246;-85
2022/03/22 05:20:46;;;;;;;32.33;20.08;;;4.70;99.90;;;;;;5030987;28;20414;-85
2022/03/22 05:23:12;;;;;;;;;;;4.60;99.90;;;;;;5030641;28;20140;-84
2022/03/22 05:25:38;;;;;;;37.25;22.08;;;4.60;99.90;;;;;;5031683;28;20284;-84
2022/03/22 05:28:04;;;;;;;43.08;22.75;;;4.60;99.90;;;;;;5030351;28;20060;-83
2022/03/22 05:30:30;;;;;;;;;;;4.60;99.90;;;;;;5032367;28;20049;-84
2022/03/22 05:32:56;;;;;;;34.55;20.25;;;4.50;99.90;;;;;;5031945;28;20016;-84
2022/03/22 05:35:23;;;;;;;;;;;4.50;99.90;;;;;;5014612;28;20128;-85
2022/03/22 05:37:49;;;;;;;32.97;20.23;;;4.60;99.90;;;;;;5012222;28;19921;-85
2022/03/22 05:40:16;;;;;;;36.03;21.27;;;4.50;99.90;;;;;;5011403;28;20081;-85
2022/03/22 05:42:42;;;;;;;37.17;21.45;;;4.50;99.90;;;;;;5011126;28;20053;-85
2022/03/22 05:45:09;;;;;;;39.75;24.23;;;4.50;99.90;;;;;;5013793;28;20050;-84
2022/03/22 05:47:34;;;;;;;39.42;23.83;;;4.50;99.90;;;;;;5016775;28;20128;-85
2022/03/22 05:50:00;;;;;;;;;;;4.40;99.90;;;;;;5016080;28;20181;-86
2022/03/22 05:52:26;;;;;;;36.90;21.95;;;4.50;99.90;;;;;;5013668;28;19929;-87
2022/03/22 05:54:51;;;;;;;40.30;22.45;;;4.50;99.90;;;;;;5032060;28;20548;-80
2022/03/22 05:57:17;;;;;;;;;;;4.50;99.90;;;;;;5026321;28;20049;-78
2022/03/22 05:59:42;;;;;;;37.65;22.25;;;4.50;99.90;;;;;;5028113;28;19925;-78
2022/03/22 06:02:09;;;;;;;;;;;4.50;99.90;;;;;;5026521;28;20095;-77
2022/03/22 06:04:34;;;;;;;40.88;22.38;;;4.50;99.90;;;;;;5030590;28;19972;-78
2022/03/22 06:07:00;;;;;;;;;;;4.50;99.90;;;;;;5024714;28;20473;-79
2022/03/22 06:09:26;;;;;;;39.30;23.00;;;4.60;99.90;;;;;;5018289;28;19963;-77
2022/03/22 06:11:52;;;;;;;;;;;4.60;99.90;;;;;;5020770;28;20076;-79
2022/03/22 06:14:17;;;;;;;39.75;22.80;;;4.60;99.90;;;;;;5014361;28;19951;-76
2022/03/22 06:16:43;;;;;;;;;;;4.50;99.90;;;;;;5013679;28;20452;-77
2022/03/22 06:19:08;;;;;;;37.22;23.73;;;6.20;99.90;;;;;;5014719;28;19928;-77
2022/03/22 06:21:34;;;;;;;;;;;4.70;99.90;;;;;;5015770;28;20037;-79
2022/03/22 06:24:00;;;;;;;37.83;22.83;;;4.80;99.90;;;;;;5023128;28;20012;-79
2022/03/22 06:26:25;;;;;;;;;;;4.80;99.90;;;;;;5032816;28;20045;-75
2022/03/22 06:28:51;;;;;;;37.65;23.83;;;4.90;99.90;;;;;;5023527;28;19944;-77
2022/03/22 06:31:17;;;;;;;40.30;24.48;;;4.90;99.90;;;;;;5031608;28;20041;-84
2022/03/22 06:33:42;;;;;;;43.80;25.08;;;5.00;99.90;;;;;;5034794;28;20043;-75
2022/03/22 06:36:08;;;;;;;;;;;5.10;99.90;;;;;;5033757;28;20048;-80
2022/03/22 06:38:39;;;;;;;39.65;24.20;;;5.20;99.90;;;;;;5016540;28;20360;-77
2022/03/22 06:41:04;;;;;;;39.53;24.50;;;5.30;99.90;;;;;;5033844;28;20037;-76
2022/03/22 06:43:30;;;;;;;;;;;5.40;99.90;;;;;;5030037;28;20112;-75
2022/03/22 06:45:55;;;;;;;37.80;23.30;;;5.60;99.90;;;;;;5014394;28;20352;-74
2022/03/22 06:48:22;;;;;;;;;;;5.70;99.90;;;;;;5014745;28;20377;-79
2022/03/22 06:50:48;;;;;;;38.15;22.73;;;6.50;99.90;;;;;;5014232;28;19921;-76
2022/03/22 06:53:13;;;;;;;;;;;6.00;99.90;;;;;;5016275;28;20416;-79
2022/03/22 06:55:39;;;;;;;40.50;25.60;;;6.10;99.90;;;;;;5010817;28;19921;-77
2022/03/22 06:58:05;;;;;;;;;;;6.20;99.90;;;;;;5010657;28;20049;-74
2022/03/22 07:00:31;;;;;;;46.05;26.30;;;6.40;99.90;;;;;;5013257;28;19925;-77
2022/03/22 07:02:58;;;;;;;46.67;27.00;;;6.50;99.90;;;;;;5012754;28;20037;-80
2022/03/22 07:05:24;;;;;;;42.03;26.33;;;6.50;99.90;;;;;;5013566;28;20049;-83
2022/03/22 07:07:49;;;;;;;;;;;6.60;99.90;;;;;;5013855;28;20088;-77
2022/03/22 07:10:17;;;;;;;44.30;26.50;;;6.70;99.90;;;;;;5013514;28;19972;-79
2022/03/22 07:12:47;;;;;;;41.78;26.02;;;6.80;99.90;;;;;;5012541;28;20473;-77
2022/03/22 07:15:13;;;;;;;42.20;25.45;;;6.90;99.90;;;;;;5032949;28;20124;-75
2022/03/22 07:17:40;;;;;;;;;;;7.10;99.90;;;;;;5028324;28;20133;-77
2022/03/22 07:20:07;;;;;;;38.95;25.10;;;8.40;99.90;;;;;;5015502;28;20377;-77
2022/03/22 07:22:32;;;;;;;37.97;25.10;;;7.30;99.90;;;;;;5016134;28;20041;-77
2022/03/22 07:24:58;;;;;;;;;;;7.40;99.90;;;;;;5015089;28;20064;-77
2022/03/22 07:27:24;;;;;;;39.33;26.00;;;7.50;99.90;;;;;;5033059;28;20022;-77
2022/03/22 07:29:51;;;;;;;41.22;25.65;;;7.60;99.90;;;;;;5032678;28;20503;-78
2022/03/22 07:32:17;;;;;;;42.85;26.17;;;7.70;99.90;;;;;;5015383;28;20045;-78
2022/03/22 07:34:43;;;;;;;;;;;7.90;99.90;;;;;;5033628;28;20095;-77
2022/03/22 07:37:08;;;;;;;42.45;26.17;;;8.00;99.90;;;;;;5032774;28;19921;-77
2022/03/22 07:39:35;;;;;;;42.80;27.50;;;8.20;99.90;;;;;;5032385;28;20041;-77
2022/03/22 07:42:01;;;;;;;43.20;27.02;;;8.30;99.90;;;;;;5015281;28;20452;-76
2022/03/22 07:44:27;;;;;;;45.42;28.23;;;8.50;99.90;;;;;;5014864;28;20132;-77
2022/03/22 07:46:53;;;;;;;44.65;29.13;;;8.80;99.90;;;;;;5033760;28;20052;-78
2022/03/22 07:54:50;;;;;;;37.67;26.77;;;11.80;99.90;;;;;;5040592;28;20080;-80
2022/03/22 07:57:15;;;;;;;40.78;27.08;;;12.30;99.90;;;;;;5052887;28;20037;-79
2022/03/22 07:59:47;;;;;;;;;;;13.00;99.90;;;;;;5035231;28;20399;-79
2022/03/22 08:02:12;;;;;;;45.58;28.23;;;12.20;99.90;;;;;;5051441;28;19924;-78
2022/03/22 08:04:38;;;;;;;;;;;12.30;99.90;;;;;;5030158;28;20041;-80
2022/03/22 08:07:04;;;;;;;40.10;27.13;;;12.60;99.90;;;;;;5015378;28;19924;-81
2022/03/22 08:09:29;;;;;;;37.38;26.35;;;12.70;99.90;;;;;;5022771;28;20064;-81
2022/03/22 08:11:55;;;;;;;;;;;12.70;99.90;;;;;;5024650;28;20349;-79
2022/03/22 08:14:21;;;;;;;40.45;28.35;;;12.70;99.90;;;;;;5051540;28;20322;-80
2022/03/22 08:16:46;;;;;;;;;;;14.30;99.90;;;;;;5052086;28;20048;-80
2022/03/22 08:19:17;;;;;;;43.92;28.00;;;13.20;99.90;;;;;;5034211;28;19989;-78
2022/03/22 08:21:43;;;;;;;50.20;28.67;;;13.60;99.90;;;;;;5051982;28;20052;-79
2022/03/22 08:24:09;;;;;;;;;;;14.60;99.90;;;;;;5052517;28;20385;-78
2022/03/22 08:26:35;;;;;;;36.70;27.25;;;15.40;99.90;;;;;;5021357;28;19921;-79
2022/03/22 08:29:00;;;;;;;36.10;27.45;;;16.30;99.90;;;;;;5031949;28;20045;-79
2022/03/22 08:31:26;;;;;;;38.95;27.83;;;16.70;99.90;;;;;;5032074;28;20048;-79
2022/03/22 08:33:53;;;;;;;36.45;26.15;;;17.00;99.90;;;;;;5014780;28;20045;-79
2022/03/22 08:36:21;;;;;;;39.75;27.60;;;18.10;99.90;;;;;;5030921;28;20057;-78
2022/03/22 08:38:47;;;;;;;35.58;26.25;;;17.00;99.90;;;;;;5031126;28;20092;-80
2022/03/22 08:41:12;;;;;;;40.78;27.15;;;17.60;99.90;;;;;;5032520;28;20541;-79
2022/03/22 08:43:38;;;;;;;36.40;26.58;;;17.80;99.50;;;;;;5014601;28;20094;-79
2022/03/22 08:46:05;;;;;;;36.40;26.77;;;17.20;99.80;;;;;;5014622;28;20064;-80
2022/03/22 08:48:51;;;;;;;38.38;27.38;;;16.80;99.90;;;;;;5031481;28;20050;-80
2022/03/22 08:51:19;;;;;;;35.35;25.63;;;16.90;97.80;;;;;;5014177;28;20056;-79
2022/03/22 08:53:44;;;;;;;37.50;24.50;;;18.00;99.20;;;;;;5014721;28;20404;-79
2022/03/22 08:56:13;;;;;;;35.97;25.80;;;17.30;99.00;;;;;;5022801;28;20037;-80
2022/03/22 08:58:39;;;;;;;34.13;25.45;;;18.30;98.10;;;;;;5051613;28;20098;-80
2022/03/22 09:01:10;;;;;;;34.03;25.40;;;18.20;95.70;;;;;;5034393;28;20053;-80
2022/03/22 09:03:38;;;;;;;34.85;25.70;;;19.90;96.50;;;;;;5050176;28;20045;-80
2022/03/22 09:06:11;;;;;;;32.78;24.38;;;20.50;95.40;;;;;;5049280;28;20118;-79
2022/03/22 09:08:39;;;;;;;34.13;24.10;;;21.60;94.30;;;;;;5014370;28;20477;-80
2022/03/22 09:11:06;;;;;;;34.88;25.75;;;21.40;87.60;;;;;;5013575;28;20124;-80
2022/03/22 09:13:33;;;;;;;33.72;25.48;;;21.70;88.30;;;;;;5031808;28;20476;-80
2022/03/22 09:15:59;;;;;;;32.72;25.05;;;22.60;89.40;;;;;;5031621;28;20072;-80
2022/03/22 09:18:26;;;;;;;31.83;25.23;;;23.20;84.20;;;;;;5032433;28;20056;-80
2022/03/22 09:20:52;;;;;;;33.88;25.70;;;22.00;82.00;;;;;;5036506;28;20041;-80
2022/03/22 09:23:19;;;;;;;29.65;24.55;;;22.50;82.60;;;;;;5034910;28;20080;-80
2022/03/22 09:25:46;;;;;;;32.47;25.13;;;23.70;77.00;;;;;;5025178;28;20407;-80
2022/03/22 09:28:12;;;;;;;33.28;24.33;;;23.00;77.50;;;;;;5055267;28;20045;-80
2022/03/22 09:30:39;;;;;;;31.38;24.45;;;22.60;76.00;;;;;;5055419;28;20044;-80
2022/03/22 09:33:07;;;;;;;28.48;23.60;;;23.20;77.70;;;;;;5036426;28;20099;-80
2022/03/22 09:35:34;;;;;;;29.15;24.10;;;21.70;79.20;;;;;;5017689;28;20052;-80
2022/03/22 09:38:00;;;;;;;31.65;24.45;;;21.70;81.90;;;;;;5035073;28;20099;-80
2022/03/22 09:40:27;;;;;;;31.50;26.02;;;21.80;81.60;;;;;;5035903;28;20124;-78
2022/03/22 09:42:55;;;;;;;30.63;25.13;;;22.50;81.50;;;;;;5035055;28;20037;-79
2022/03/22 09:45:48;;;;;;;30.83;24.70;;;22.90;80.30;;;;;;5034482;28;20037;-79
2022/03/22 09:48:14;;;;;;;30.80;24.45;;;24.90;73.10;;;;;;5031292;28;20045;-79
2022/03/22 09:53:24;;;;;;;29.77;23.50;;;24.60;74.20;;;;;;5034400;28;20053;-79
2022/03/22 09:55:50;;;;;;;29.13;24.13;;;25.70;73.50;;;;;;5020521;28;20389;-79
2022/03/22 09:58:16;;;;;;;27.67;23.15;;;25.00;73.20;;;;;;5054678;28;20373;-79
2022/03/22 10:00:41;;;;;;;31.20;23.70;;;25.50;72.20;;;;;;5036810;28;20064;-79
2022/03/22 10:03:07;;;;;;;28.33;23.58;;;26.00;70.70;;;;;;5036591;28;20056;-79
2022/03/22 10:05:32;;;;;;;28.83;23.58;;;26.40;68.20;;;;;;5047763;28;20037;-79
2022/03/22 10:08:06;;;;;;;30.23;24.55;;;25.10;69.80;;;;;;5034654;28;20501;-79
2022/03/22 10:10:32;;;;;;;29.15;24.00;;;25.20;68.70;;;;;;5035104;28;20045;-79
2022/03/22 10:13:01;;;;;;;30.45;24.88;;;25.10;67.40;;;;;;5018629;28;20060;-81
2022/03/22 10:15:35;;;;;;;29.50;23.25;;;25.10;67.60;;;;;;5054079;28;20060;-79
2022/03/22 10:18:04;;;;;;;28.63;23.88;;;26.00;67.30;;;;;;5054190;28;20056;-79
2022/03/22 10:20:31;;;;;;;30.75;23.85;;;25.30;67.40;;;;;;5049693;28;20041;-79
2022/03/22 10:23:01;;;;;;;30.60;23.20;;;25.70;66.80;;;;;;5034645;28;20120;-79
2022/03/22 10:25:31;;;;;;;29.88;23.88;;;25.70;64.10;;;;;;5016498;28;20088;-80
2022/03/22 10:27:58;;;;;;;31.42;24.90;;;26.00;62.30;;;;;;5034986;28;20048;-82
2022/03/22 10:30:24;;;;;;;30.35;24.00;;;26.50;64.70;;;;;;5033535;28;20085;-80
2022/03/22 10:32:51;;;;;;;29.50;23.55;;;26.50;61.50;;;;;;5034312;28;20077;-80
2022/03/22 10:35:22;;;;;;;30.20;24.02;;;25.90;58.70;;;;;;5049613;28;20499;-80
2022/03/22 10:37:50;;;;;;;35.55;25.63;;;26.30;59.70;;;;;;5052407;28;20044;-78
2022/03/22 10:40:40;;;;;;;29.85;23.27;;;26.70;59.90;;;;;;5024671;28;20052;-80
2022/03/22 10:43:12;;;;;;;30.77;25.10;;;26.90;55.90;;;;;;5053800;28;20107;-77
2022/03/22 10:45:49;;;;;;;30.17;25.58;;;27.90;54.70;;;;;;5054207;28;20061;-81
2022/03/22 10:48:22;;;;;;;28.48;24.20;;;27.00;54.90;;;;;;5049268;28;20029;-81
2022/03/22 10:50:49;;;;;;;28.00;23.40;;;26.50;55.30;;;;;;5042383;28;20500;-80
2022/03/22 10:53:19;;;;;;;30.45;24.65;;;25.40;58.20;;;;;;5036813;28;20553;-78
2022/03/22 10:55:46;;;;;;;31.83;25.52;;;24.90;59.30;;;;;;5033459;28;20033;-79
2022/03/22 10:58:20;;;;;;;31.17;24.45;;;25.10;60.70;;;;;;5016072;28;20056;-80
2022/03/22 11:00:47;;;;;;;29.08;23.63;;;24.90;60.80;;;;;;5017455;28;20059;-79
2022/03/22 11:03:13;;;;;;;28.05;23.38;;;24.80;60.50;;;;;;5033028;28;20033;-79
2022/03/22 11:05:49;;;;;;;30.45;24.08;;;24.70;61.90;;;;;;5042461;28;20041;-80
2022/03/22 11:08:18;;;;;;;;;;;25.00;61.20;;;;;;5035576;28;20132;-78
2022/03/22 11:10:45;;;;;;;29.45;22.13;;;25.50;60.10;;;;;;5033364;28;19921;-79
2022/03/22 11:13:10;;;;;;;27.48;22.77;;;25.50;60.10;;;;;;5015513;28;20041;-79
2022/03/22 11:15:41;;;;;;;29.23;22.67;;;25.90;61.80;;;;;;5015691;28;20053;-78
2022/03/22 11:18:07;;;;;;;28.30;22.85;;;26.00;59.40;;;;;;5033104;28;20044;-78
2022/03/22 11:20:33;;;;;;;27.98;21.63;;;26.40;59.80;;;;;;5016006;28;20064;-77
2022/03/22 11:23:00;;;;;;;27.58;22.13;;;27.00;58.60;;;;;;5016272;28;20485;-78
2022/03/22 11:25:35;;;;;;;26.73;21.67;;;27.40;56.90;;;;;;5015556;28;20041;-78
2022/03/22 11:28:09;;;;;;;28.95;21.15;;;27.30;55.00;;;;;;5034025;28;20167;-79
2022/03/22 11:30:39;;;;;;;32.65;22.45;;;27.20;54.90;;;;;;5032833;28;20519;-78
2022/03/22 11:36:00;;;;;;;26.58;21.35;;;27.00;55.60;;;;;;5033899;28;20488;-81
2022/03/22 11:38:54;;;;;;;25.60;21.48;;;27.00;54.70;;;;;;5033975;28;20415;-77
2022/03/22 11:44:36;;;;;;;25.55;20.60;;;27.40;55.80;;;;;;5032462;28;20081;-80
2022/03/22 11:47:11;;;;;;;25.02;20.10;;;27.10;54.80;;;;;;5016184;28;20044;-82
2022/03/22 11:50:06;;;;;;;26.27;20.08;;;27.70;54.00;;;;;;5044227;28;20144;-81
2022/03/22 11:52:36;;;;;;;26.20;20.08;;;27.90;52.70;;;;;;5032879;28;20056;-82
2022/03/22 11:55:16;;;;;;;27.15;20.40;;;28.10;53.20;;;;;;5032692;28;20049;-83
2022/03/22 11:57:45;;;;;;;23.95;19.27;;;28.10;52.60;;;;;;5017436;28;20477;-79
2022/03/22 12:00:14;;;;;;;27.42;19.25;;;28.80;52.50;;;;;;5042741;28;20377;-78
2022/03/22 12:02:43;;;;;;;25.92;19.38;;;28.60;51.20;;;;;;5033191;28;20041;-78
2022/03/22 12:05:09;;;;;;;26.70;18.98;;;28.30;49.80;;;;;;5031811;28;20366;-78
2022/03/22 12:07:37;;;;;;;24.67;19.42;;;27.70;51.30;;;;;;5015311;28;20053;-78
2022/03/22 12:10:08;;;;;;;23.92;19.45;;;27.70;50.30;;;;;;5031739;28;20148;-78
2022/03/22 12:12:35;;;;;;;27.85;20.98;;;27.70;51.20;;;;;;5044215;28;20029;-80
2022/03/22 12:15:03;;;;;;;24.35;18.35;;;27.80;50.30;;;;;;5026653;28;20049;-80
2022/03/22 12:17:29;;;;;;;26.08;19.17;;;27.10;52.10;;;;;;5035022;28;20045;-79
2022/03/22 12:20:07;;;;;;;23.80;18.52;;;27.10;51.90;;;;;;5032242;28;20124;-79
2022/03/22 12:22:33;;;;;;;25.95;18.92;;;26.70;51.80;;;;;;5014953;28;20053;-78
2022/03/22 12:25:00;;;;;;;22.75;17.50;;;26.90;53.20;;;;;;5032615;28;20049;-79
2022/03/22 12:27:26;;;;;;;22.02;17.85;;;27.00;53.10;;;;;;5036579;28;20036;-79
2022/03/22 12:29:53;;;;;;;24.90;18.30;;;27.50;52.00;;;;;;5038967;28;20045;-78
2022/03/22 12:32:25;;;;;;;21.95;17.27;;;27.40;52.10;;;;;;5049826;28;20076;-78
2022/03/22 12:34:54;;;;;;;23.83;17.30;;;27.00;52.20;;;;;;5052164;28;20518;-78
2022/03/22 12:37:20;;;;;;;23.58;18.17;;;27.50;52.90;;;;;;5034166;28;20582;-79
2022/03/22 12:39:47;;;;;;;25.55;16.23;;;27.50;53.20;;;;;;5052158;28;20128;-78
2022/03/22 12:42:15;;;;;;;23.52;16.83;;;28.50;50.50;;;;;;5031687;28;20515;-81
2022/03/22 12:44:41;;;;;;;20.70;16.33;;;28.20;49.80;;;;;;5042367;28;20431;-80
2022/03/22 12:47:08;;;;;;;20.98;16.38;;;27.40;50.70;;;;;;5042986;28;20102;-80
2022/03/22 12:49:42;;;;;;;24.05;17.08;;;27.30;51.30;;;;;;5037224;28;20050;-77
2022/03/22 12:52:09;;;;;;;28.95;18.65;;;26.90;52.50;;;;;;5038838;28;20099;-78
2022/03/22 12:54:40;;;;;;;25.20;17.25;;;26.90;53.00;;;;;;5051797;28;20056;-77
2022/03/22 12:57:11;;;;;;;24.13;17.58;;;26.70;53.00;;;;;;5041159;28;20045;-76
2022/03/22 12:59:38;;;;;;;21.35;16.80;;;26.60;53.00;;;;;;5038312;28;20049;-76
2022/03/22 13:02:06;;;;;;;22.33;16.45;;;26.50;53.30;;;;;;5046786;28;20132;-79
2022/03/22 13:04:46;;;;;;;20.48;15.80;;;26.30;54.20;;;;;;5038724;28;20124;-77
2022/03/22 13:07:30;;;;;;;24.42;17.42;;;25.80;54.20;;;;;;5031586;28;20466;-77
2022/03/22 13:12:43;;;;;;;21.27;15.27;;;25.80;55.30;;;;;;5032188;28;20152;-76
2022/03/22 13:15:15;;;;;;;22.83;17.65;;;25.40;55.80;;;;;;5031460;28;20058;-76
2022/03/22 13:17:48;;;;;;;19.55;14.60;;;25.30;56.00;;;;;;5043004;28;20053;-75
2022/03/22 13:20:26;;;;;;;20.98;16.20;;;25.00;55.70;;;;;;5049759;28;20124;-79
2022/03/22 13:23:01;;;;;;;21.23;17.15;;;24.50;56.70;;;;;;5044228;28;20493;-78
2022/03/22 13:25:30;;;;;;;22.55;16.17;;;24.10;56.80;;;;;;5031608;28;20053;-78
2022/03/22 13:28:01;;;;;;;24.50;16.75;;;23.80;57.70;;;;;;5036536;28;20488;-76
2022/03/22 13:30:29;;;;;;;23.25;16.20;;;23.70;58.00;;;;;;5039187;28;20539;-76
2022/03/22 13:33:07;;;;;;;24.05;16.70;;;23.20;59.80;;;;;;5050502;28;20052;-79
2022/03/22 13:35:34;;;;;;;22.02;16.02;;;23.10;60.70;;;;;;5035469;28;20050;-78
2022/03/22 13:38:05;;;;;;;22.45;17.30;;;23.10;60.80;;;;;;5025056;28;20044;-78